sensor_id;sensor_type;location;lat;lon;timestamp;P1;durP1;ratioP1;P2;durP2;ratioP2
3801;SDS011;1916;51.798;12.246;2023-07-20T00:00:08;13.23;;;10.63;;
3801;SDS011;1916;51.798;12.246;2023-07-20T00:02:17;14.20;;;12.70;;
3801;SDS011;1916;51.798;12.246;2023-07-20T00:04:19;11.70;;;10.50;;
3801;SDS011;1916;51.798;12.246;2023-07-20T00:06:21;20.37;;;10.20;;
3801;SDS011;1916;51.798;12.246;2023-07-20T00:08:24;12.47;;;9.60;;
3801;SDS011;1916;51.798;12.246;2023-07-20T00:10:26;13.27;;;9.70;;
3801;SDS011;1916;51.798;12.246;2023-07-20T00:12:29;10.30;;;9.30;;
3801;SDS011;1916;51.798;12.246;2023-07-20T00:14:31;9.40;;;8.40;;
3801;SDS011;1916;51.798;12.246;2023-07-20T00:16:34;10.33;;;8.70;;
3801;SDS011;1916;51.798;12.246;2023-07-20T00:18:36;10.00;;;9.00;;
3801;SDS011;1916;51.798;12.246;2023-07-20T00:20:38;11.43;;;8.83;;
3801;SDS011;1916;51.798;12.246;2023-07-20T00:22:40;11.67;;;9.03;;
3801;SDS011;1916;51.798;12.246;2023-07-20T00:24:42;10.53;;;8.60;;
3801;SDS011;1916;51.798;12.246;2023-07-20T00:26:44;14.97;;;9.50;;
3801;SDS011;1916;51.798;12.246;2023-07-20T00:28:48;9.60;;;8.60;;
3801;SDS011;1916;51.798;12.246;2023-07-20T00:30:53;12.37;;;9.30;;
3801;SDS011;1916;51.798;12.246;2023-07-20T00:32:55;9.33;;;8.33;;
3801;SDS011;1916;51.798;12.246;2023-07-20T00:34:57;14.30;;;8.83;;
3801;SDS011;1916;51.798;12.246;2023-07-20T00:37:20;10.20;;;8.60;;
3801;SDS011;1916;51.798;12.246;2023-07-20T00:39:23;9.47;;;8.30;;
3801;SDS011;1916;51.798;12.246;2023-07-20T00:41:26;8.87;;;8.00;;
3801;SDS011;1916;51.798;12.246;2023-07-20T00:43:31;8.93;;;8.03;;
3801;SDS011;1916;51.798;12.246;2023-07-20T00:45:33;10.80;;;8.27;;
3801;SDS011;1916;51.798;12.246;2023-07-20T00:47:39;10.67;;;8.20;;
3801;SDS011;1916;51.798;12.246;2023-07-20T00:49:42;13.83;;;8.30;;
3801;SDS011;1916;51.798;12.246;2023-07-20T00:51:44;12.83;;;8.07;;
3801;SDS011;1916;51.798;12.246;2023-07-20T00:53:46;10.43;;;7.70;;
3801;SDS011;1916;51.798;12.246;2023-07-20T00:55:49;8.37;;;7.47;;
3801;SDS011;1916;51.798;12.246;2023-07-20T00:57:51;12.50;;;8.53;;
3801;SDS011;1916;51.798;12.246;2023-07-20T00:59:54;11.00;;;8.23;;
3801;SDS011;1916;51.798;12.246;2023-07-20T01:01:58;13.80;;;8.77;;
3801;SDS011;1916;51.798;12.246;2023-07-20T01:04:00;16.60;;;8.20;;
3801;SDS011;1916;51.798;12.246;2023-07-20T01:06:10;11.63;;;8.10;;
3801;SDS011;1916;51.798;12.246;2023-07-20T01:08:25;11.63;;;8.47;;
3801;SDS011;1916;51.798;12.246;2023-07-20T01:10:46;10.40;;;8.07;;
3801;SDS011;1916;51.798;12.246;2023-07-20T01:12:53;9.53;;;8.53;;
3801;SDS011;1916;51.798;12.246;2023-07-20T01:14:56;11.67;;;7.93;;
3801;SDS011;1916;51.798;12.246;2023-07-20T01:16:59;8.20;;;7.30;;
3801;SDS011;1916;51.798;12.246;2023-07-20T01:19:01;9.50;;;8.00;;
3801;SDS011;1916;51.798;12.246;2023-07-20T01:21:06;11.50;;;7.67;;
3801;SDS011;1916;51.798;12.246;2023-07-20T01:23:34;9.47;;;7.70;;
3801;SDS011;1916;51.798;12.246;2023-07-20T01:32:54;11.90;;;7.43;;
3801;SDS011;1916;51.798;12.246;2023-07-20T01:34:58;8.60;;;7.47;;
3801;SDS011;1916;51.798;12.246;2023-07-20T01:37:02;8.63;;;7.63;;
3801;SDS011;1916;51.798;12.246;2023-07-20T01:39:05;8.57;;;7.20;;
3801;SDS011;1916;51.798;12.246;2023-07-20T01:41:07;12.43;;;7.90;;
3801;SDS011;1916;51.798;12.246;2023-07-20T01:43:10;8.70;;;7.70;;
3801;SDS011;1916;51.798;12.246;2023-07-20T01:45:13;9.50;;;8.50;;
3801;SDS011;1916;51.798;12.246;2023-07-20T01:47:15;10.67;;;7.80;;
3801;SDS011;1916;51.798;12.246;2023-07-20T01:49:17;11.23;;;7.40;;
3801;SDS011;1916;51.798;12.246;2023-07-20T01:51:19;9.63;;;7.10;;
3801;SDS011;1916;51.798;12.246;2023-07-20T01:53:24;9.80;;;8.40;;
3801;SDS011;1916;51.798;12.246;2023-07-20T01:55:26;8.83;;;7.37;;
3801;SDS011;1916;51.798;12.246;2023-07-20T01:57:29;9.13;;;7.40;;
3801;SDS011;1916;51.798;12.246;2023-07-20T01:59:31;8.87;;;7.97;;
3801;SDS011;1916;51.798;12.246;2023-07-20T02:01:33;11.63;;;8.43;;
3801;SDS011;1916;51.798;12.246;2023-07-20T02:03:35;14.40;;;8.10;;
3801;SDS011;1916;51.798;12.246;2023-07-20T02:05:38;10.97;;;9.77;;
3801;SDS011;1916;51.798;12.246;2023-07-20T02:07:40;9.83;;;8.70;;
3801;SDS011;1916;51.798;12.246;2023-07-20T02:09:50;9.60;;;7.93;;
3801;SDS011;1916;51.798;12.246;2023-07-20T02:11:53;12.23;;;10.53;;
3801;SDS011;1916;51.798;12.246;2023-07-20T02:13:55;9.67;;;8.50;;
3801;SDS011;1916;51.798;12.246;2023-07-20T02:15:57;10.03;;;8.60;;
3801;SDS011;1916;51.798;12.246;2023-07-20T02:17:59;13.07;;;8.67;;
3801;SDS011;1916;51.798;12.246;2023-07-20T02:20:01;8.63;;;7.73;;
3801;SDS011;1916;51.798;12.246;2023-07-20T02:22:04;8.83;;;7.93;;
3801;SDS011;1916;51.798;12.246;2023-07-20T02:24:07;13.33;;;7.90;;
3801;SDS011;1916;51.798;12.246;2023-07-20T02:26:09;8.77;;;7.67;;
3801;SDS011;1916;51.798;12.246;2023-07-20T02:28:14;10.80;;;8.30;;
3801;SDS011;1916;51.798;12.246;2023-07-20T02:30:16;10.23;;;8.57;;
3801;SDS011;1916;51.798;12.246;2023-07-20T02:32:19;9.53;;;8.47;;
3801;SDS011;1916;51.798;12.246;2023-07-20T02:34:22;9.37;;;8.13;;
3801;SDS011;1916;51.798;12.246;2023-07-20T02:36:24;10.03;;;8.73;;
3801;SDS011;1916;51.798;12.246;2023-07-20T02:38:26;12.30;;;8.50;;
3801;SDS011;1916;51.798;12.246;2023-07-20T02:40:28;9.20;;;8.30;;
3801;SDS011;1916;51.798;12.246;2023-07-20T02:42:31;11.93;;;8.70;;
3801;SDS011;1916;51.798;12.246;2023-07-20T02:44:33;11.33;;;8.20;;
3801;SDS011;1916;51.798;12.246;2023-07-20T02:46:35;11.57;;;8.07;;
3801;SDS011;1916;51.798;12.246;2023-07-20T02:48:37;11.10;;;7.67;;
3801;SDS011;1916;51.798;12.246;2023-07-20T02:50:39;13.23;;;7.93;;
3801;SDS011;1916;51.798;12.246;2023-07-20T02:52:41;8.57;;;7.73;;
3801;SDS011;1916;51.798;12.246;2023-07-20T02:54:43;8.30;;;6.97;;
3801;SDS011;1916;51.798;12.246;2023-07-20T02:56:45;10.10;;;6.90;;
3801;SDS011;1916;51.798;12.246;2023-07-20T02:58:47;6.87;;;6.13;;
3801;SDS011;1916;51.798;12.246;2023-07-20T03:00:49;7.23;;;6.53;;
3801;SDS011;1916;51.798;12.246;2023-07-20T03:02:51;15.00;;;6.77;;
3801;SDS011;1916;51.798;12.246;2023-07-20T03:04:57;10.97;;;6.57;;
3801;SDS011;1916;51.798;12.246;2023-07-20T03:07:04;9.57;;;6.70;;
3801;SDS011;1916;51.798;12.246;2023-07-20T03:09:06;10.00;;;6.80;;
3801;SDS011;1916;51.798;12.246;2023-07-20T03:11:09;5.97;;;5.40;;
3801;SDS011;1916;51.798;12.246;2023-07-20T03:13:11;11.57;;;6.30;;
3801;SDS011;1916;51.798;12.246;2023-07-20T03:15:14;6.83;;;5.03;;
3801;SDS011;1916;51.798;12.246;2023-07-20T03:17:16;8.50;;;6.13;;
3801;SDS011;1916;51.798;12.246;2023-07-20T03:19:20;11.13;;;6.00;;
3801;SDS011;1916;51.798;12.246;2023-07-20T03:21:22;14.00;;;6.73;;
3801;SDS011;1916;51.798;12.246;2023-07-20T03:23:24;12.20;;;6.10;;
3801;SDS011;1916;51.798;12.246;2023-07-20T03:25:28;10.47;;;5.83;;
3801;SDS011;1916;51.798;12.246;2023-07-20T03:27:31;8.43;;;6.70;;
3801;SDS011;1916;51.798;12.246;2023-07-20T03:29:34;10.57;;;6.10;;
3801;SDS011;1916;51.798;12.246;2023-07-20T03:31:37;11.13;;;5.70;;
3801;SDS011;1916;51.798;12.246;2023-07-20T03:33:39;7.67;;;5.43;;
3801;SDS011;1916;51.798;12.246;2023-07-20T03:35:42;8.33;;;5.80;;
3801;SDS011;1916;51.798;12.246;2023-07-20T03:37:45;12.13;;;6.20;;
3801;SDS011;1916;51.798;12.246;2023-07-20T03:39:47;9.53;;;5.60;;
3801;SDS011;1916;51.798;12.246;2023-07-20T03:41:49;18.10;;;6.30;;
3801;SDS011;1916;51.798;12.246;2023-07-20T03:43:51;7.03;;;5.90;;
3801;SDS011;1916;51.798;12.246;2023-07-20T03:45:54;15.80;;;6.10;;
3801;SDS011;1916;51.798;12.246;2023-07-20T03:47:56;8.03;;;5.70;;
3801;SDS011;1916;51.798;12.246;2023-07-20T03:49:58;7.40;;;5.10;;
3801;SDS011;1916;51.798;12.246;2023-07-20T03:52:00;6.57;;;5.90;;
3801;SDS011;1916;51.798;12.246;2023-07-20T03:54:05;15.57;;;6.20;;
3801;SDS011;1916;51.798;12.246;2023-07-20T03:56:07;7.63;;;5.67;;
3801;SDS011;1916;51.798;12.246;2023-07-20T03:58:09;7.47;;;5.90;;
3801;SDS011;1916;51.798;12.246;2023-07-20T04:00:11;7.97;;;6.40;;
3801;SDS011;1916;51.798;12.246;2023-07-20T04:02:16;9.83;;;5.20;;
3801;SDS011;1916;51.798;12.246;2023-07-20T04:04:18;8.90;;;5.90;;
3801;SDS011;1916;51.798;12.246;2023-07-20T04:06:20;6.67;;;5.30;;
3801;SDS011;1916;51.798;12.246;2023-07-20T04:08:23;10.03;;;5.70;;
3801;SDS011;1916;51.798;12.246;2023-07-20T04:10:28;11.13;;;5.50;;
3801;SDS011;1916;51.798;12.246;2023-07-20T04:12:31;8.50;;;6.80;;
3801;SDS011;1916;51.798;12.246;2023-07-20T04:14:33;8.30;;;6.30;;
3801;SDS011;1916;51.798;12.246;2023-07-20T04:16:35;13.23;;;6.40;;
3801;SDS011;1916;51.798;12.246;2023-07-20T04:18:38;10.83;;;5.83;;
3801;SDS011;1916;51.798;12.246;2023-07-20T04:20:40;8.53;;;6.30;;
3801;SDS011;1916;51.798;12.246;2023-07-20T04:22:43;9.73;;;5.30;;
3801;SDS011;1916;51.798;12.246;2023-07-20T04:24:48;13.10;;;5.73;;
3801;SDS011;1916;51.798;12.246;2023-07-20T04:26:50;10.20;;;5.43;;
3801;SDS011;1916;51.798;12.246;2023-07-20T04:28:52;7.73;;;5.90;;
3801;SDS011;1916;51.798;12.246;2023-07-20T04:31:13;9.13;;;5.47;;
3801;SDS011;1916;51.798;12.246;2023-07-20T04:33:18;10.03;;;6.20;;
3801;SDS011;1916;51.798;12.246;2023-07-20T04:37:51;9.97;;;6.33;;
3801;SDS011;1916;51.798;12.246;2023-07-20T04:39:55;9.70;;;6.20;;
3801;SDS011;1916;51.798;12.246;2023-07-20T04:41:57;7.10;;;5.77;;
3801;SDS011;1916;51.798;12.246;2023-07-20T04:43:59;10.47;;;6.53;;
3801;SDS011;1916;51.798;12.246;2023-07-20T04:46:03;8.00;;;6.03;;
3801;SDS011;1916;51.798;12.246;2023-07-20T04:48:09;7.93;;;6.37;;
3801;SDS011;1916;51.798;12.246;2023-07-20T04:50:21;7.63;;;6.40;;
3801;SDS011;1916;51.798;12.246;2023-07-20T04:52:24;8.27;;;6.40;;
3801;SDS011;1916;51.798;12.246;2023-07-20T04:54:43;7.77;;;6.30;;
3801;SDS011;1916;51.798;12.246;2023-07-20T04:56:47;11.33;;;6.70;;
3801;SDS011;1916;51.798;12.246;2023-07-20T04:58:53;10.37;;;6.10;;
3801;SDS011;1916;51.798;12.246;2023-07-20T05:00:55;8.17;;;5.90;;
3801;SDS011;1916;51.798;12.246;2023-07-20T05:02:57;7.93;;;5.50;;
3801;SDS011;1916;51.798;12.246;2023-07-20T05:05:00;7.77;;;5.70;;
3801;SDS011;1916;51.798;12.246;2023-07-20T05:07:03;8.63;;;7.20;;
3801;SDS011;1916;51.798;12.246;2023-07-20T05:09:06;7.20;;;6.50;;
3801;SDS011;1916;51.798;12.246;2023-07-20T05:11:09;10.07;;;6.43;;
3801;SDS011;1916;51.798;12.246;2023-07-20T05:13:11;11.80;;;5.87;;
3801;SDS011;1916;51.798;12.246;2023-07-20T05:15:13;7.93;;;6.47;;
3801;SDS011;1916;51.798;12.246;2023-07-20T05:17:16;7.13;;;5.83;;
3801;SDS011;1916;51.798;12.246;2023-07-20T05:19:18;8.67;;;5.90;;
3801;SDS011;1916;51.798;12.246;2023-07-20T05:21:20;7.00;;;6.30;;
3801;SDS011;1916;51.798;12.246;2023-07-20T05:23:22;6.83;;;5.67;;
3801;SDS011;1916;51.798;12.246;2023-07-20T05:25:25;6.70;;;5.60;;
3801;SDS011;1916;51.798;12.246;2023-07-20T05:27:29;16.20;;;6.40;;
3801;SDS011;1916;51.798;12.246;2023-07-20T05:29:31;6.47;;;5.20;;
3801;SDS011;1916;51.798;12.246;2023-07-20T05:31:34;9.67;;;4.70;;
3801;SDS011;1916;51.798;12.246;2023-07-20T05:33:37;6.37;;;5.70;;
3801;SDS011;1916;51.798;12.246;2023-07-20T05:35:39;11.73;;;6.20;;
3801;SDS011;1916;51.798;12.246;2023-07-20T05:37:41;8.10;;;6.97;;
3801;SDS011;1916;51.798;12.246;2023-07-20T05:39:43;7.27;;;5.70;;
3801;SDS011;1916;51.798;12.246;2023-07-20T05:41:45;7.60;;;5.30;;
3801;SDS011;1916;51.798;12.246;2023-07-20T05:43:47;8.87;;;6.30;;
3801;SDS011;1916;51.798;12.246;2023-07-20T05:45:50;6.73;;;6.00;;
3801;SDS011;1916;51.798;12.246;2023-07-20T05:47:52;8.20;;;6.20;;
3801;SDS011;1916;51.798;12.246;2023-07-20T05:49:54;14.00;;;6.17;;
3801;SDS011;1916;51.798;12.246;2023-07-20T05:51:56;6.57;;;4.30;;
3801;SDS011;1916;51.798;12.246;2023-07-20T05:53:58;6.37;;;4.40;;
3801;SDS011;1916;51.798;12.246;2023-07-20T05:56:00;8.73;;;4.20;;
3801;SDS011;1916;51.798;12.246;2023-07-20T05:58:02;7.20;;;3.87;;
3801;SDS011;1916;51.798;12.246;2023-07-20T06:00:06;4.40;;;4.00;;
3801;SDS011;1916;51.798;12.246;2023-07-20T06:02:14;10.97;;;5.03;;
3801;SDS011;1916;51.798;12.246;2023-07-20T06:04:16;5.97;;;4.30;;
3801;SDS011;1916;51.798;12.246;2023-07-20T06:06:18;7.47;;;4.07;;
3801;SDS011;1916;51.798;12.246;2023-07-20T06:08:20;7.07;;;4.10;;
3801;SDS011;1916;51.798;12.246;2023-07-20T06:10:23;10.63;;;4.27;;
3801;SDS011;1916;51.798;12.246;2023-07-20T06:12:25;6.13;;;4.27;;
3801;SDS011;1916;51.798;12.246;2023-07-20T06:14:27;5.63;;;4.13;;
3801;SDS011;1916;51.798;12.246;2023-07-20T06:16:29;3.80;;;3.50;;
3801;SDS011;1916;51.798;12.246;2023-07-20T06:18:31;4.27;;;3.87;;
3801;SDS011;1916;51.798;12.246;2023-07-20T06:20:33;4.87;;;4.20;;
3801;SDS011;1916;51.798;12.246;2023-07-20T06:22:35;4.90;;;3.90;;
3801;SDS011;1916;51.798;12.246;2023-07-20T06:24:37;6.17;;;3.80;;
3801;SDS011;1916;51.798;12.246;2023-07-20T06:26:39;5.63;;;4.80;;
3801;SDS011;1916;51.798;12.246;2023-07-20T06:28:42;7.27;;;4.90;;
3801;SDS011;1916;51.798;12.246;2023-07-20T06:30:44;4.70;;;4.03;;
3801;SDS011;1916;51.798;12.246;2023-07-20T06:32:46;9.93;;;4.97;;
3801;SDS011;1916;51.798;12.246;2023-07-20T06:34:48;5.03;;;4.27;;
3801;SDS011;1916;51.798;12.246;2023-07-20T06:36:50;5.17;;;4.40;;
3801;SDS011;1916;51.798;12.246;2023-07-20T06:38:53;5.93;;;4.77;;
3801;SDS011;1916;51.798;12.246;2023-07-20T06:40:58;6.47;;;4.53;;
3801;SDS011;1916;51.798;12.246;2023-07-20T06:43:20;5.80;;;4.53;;
3801;SDS011;1916;51.798;12.246;2023-07-20T06:45:25;5.50;;;4.57;;
3801;SDS011;1916;51.798;12.246;2023-07-20T06:47:27;5.70;;;4.27;;
3801;SDS011;1916;51.798;12.246;2023-07-20T06:49:29;4.20;;;3.90;;
3801;SDS011;1916;51.798;12.246;2023-07-20T06:51:31;3.80;;;3.40;;
3801;SDS011;1916;51.798;12.246;2023-07-20T06:53:34;10.13;;;3.30;;
3801;SDS011;1916;51.798;12.246;2023-07-20T06:55:36;2.70;;;2.50;;
3801;SDS011;1916;51.798;12.246;2023-07-20T06:57:41;7.10;;;3.33;;
3801;SDS011;1916;51.798;12.246;2023-07-20T06:59:49;2.63;;;2.40;;
3801;SDS011;1916;51.798;12.246;2023-07-20T07:01:51;4.47;;;2.50;;
3801;SDS011;1916;51.798;12.246;2023-07-20T07:03:53;3.10;;;2.40;;
3801;SDS011;1916;51.798;12.246;2023-07-20T07:05:57;4.43;;;2.70;;
3801;SDS011;1916;51.798;12.246;2023-07-20T07:07:59;2.60;;;2.40;;
3801;SDS011;1916;51.798;12.246;2023-07-20T07:10:01;2.83;;;2.47;;
3801;SDS011;1916;51.798;12.246;2023-07-20T07:12:06;2.77;;;2.40;;
3801;SDS011;1916;51.798;12.246;2023-07-20T07:14:09;2.40;;;2.20;;
3801;SDS011;1916;51.798;12.246;2023-07-20T07:16:11;2.90;;;2.40;;
3801;SDS011;1916;51.798;12.246;2023-07-20T07:18:13;2.13;;;2.00;;
3801;SDS011;1916;51.798;12.246;2023-07-20T07:20:16;2.03;;;1.53;;
3801;SDS011;1916;51.798;12.246;2023-07-20T07:22:22;4.40;;;1.90;;
3801;SDS011;1916;51.798;12.246;2023-07-20T07:24:24;4.33;;;1.77;;
3801;SDS011;1916;51.798;12.246;2023-07-20T07:26:31;2.27;;;1.40;;
3801;SDS011;1916;51.798;12.246;2023-07-20T07:28:33;2.50;;;1.90;;
3801;SDS011;1916;51.798;12.246;2023-07-20T07:30:35;3.73;;;1.93;;
3801;SDS011;1916;51.798;12.246;2023-07-20T07:32:37;1.87;;;1.77;;
3801;SDS011;1916;51.798;12.246;2023-07-20T07:34:39;6.00;;;1.60;;
3801;SDS011;1916;51.798;12.246;2023-07-20T07:36:42;2.13;;;1.83;;
3801;SDS011;1916;51.798;12.246;2023-07-20T07:38:45;1.73;;;1.63;;
3801;SDS011;1916;51.798;12.246;2023-07-20T07:41:07;2.00;;;1.80;;
3801;SDS011;1916;51.798;12.246;2023-07-20T07:43:09;1.63;;;1.53;;
3801;SDS011;1916;51.798;12.246;2023-07-20T07:45:11;1.50;;;1.30;;
3801;SDS011;1916;51.798;12.246;2023-07-20T07:47:14;1.63;;;1.50;;
3801;SDS011;1916;51.798;12.246;2023-07-20T07:49:17;1.73;;;1.30;;
3801;SDS011;1916;51.798;12.246;2023-07-20T07:51:21;2.20;;;1.47;;
3801;SDS011;1916;51.798;12.246;2023-07-20T07:53:23;1.47;;;1.10;;
3801;SDS011;1916;51.798;12.246;2023-07-20T07:55:27;3.77;;;1.43;;
3801;SDS011;1916;51.798;12.246;2023-07-20T07:57:30;4.53;;;1.30;;
3801;SDS011;1916;51.798;12.246;2023-07-20T07:59:32;2.30;;;1.20;;
3801;SDS011;1916;51.798;12.246;2023-07-20T08:01:38;1.30;;;1.20;;
3801;SDS011;1916;51.798;12.246;2023-07-20T08:03:40;1.43;;;1.30;;
3801;SDS011;1916;51.798;12.246;2023-07-20T08:05:42;4.43;;;1.30;;
3801;SDS011;1916;51.798;12.246;2023-07-20T08:07:44;1.40;;;1.00;;
3801;SDS011;1916;51.798;12.246;2023-07-20T08:09:47;1.20;;;1.10;;
3801;SDS011;1916;51.798;12.246;2023-07-20T08:11:49;1.20;;;1.10;;
3801;SDS011;1916;51.798;12.246;2023-07-20T08:13:51;1.20;;;1.10;;
3801;SDS011;1916;51.798;12.246;2023-07-20T08:15:53;1.20;;;1.10;;
3801;SDS011;1916;51.798;12.246;2023-07-20T08:17:56;0.90;;;0.90;;
3801;SDS011;1916;51.798;12.246;2023-07-20T08:20:08;1.20;;;1.10;;
3801;SDS011;1916;51.798;12.246;2023-07-20T08:22:13;1.27;;;1.00;;
3801;SDS011;1916;51.798;12.246;2023-07-20T08:24:16;3.67;;;1.50;;
3801;SDS011;1916;51.798;12.246;2023-07-20T08:26:18;2.50;;;1.30;;
3801;SDS011;1916;51.798;12.246;2023-07-20T08:28:20;0.80;;;0.80;;
3801;SDS011;1916;51.798;12.246;2023-07-20T08:30:23;1.23;;;0.90;;
3801;SDS011;1916;51.798;12.246;2023-07-20T08:32:25;1.70;;;1.03;;
3801;SDS011;1916;51.798;12.246;2023-07-20T08:34:28;1.53;;;0.90;;
3801;SDS011;1916;51.798;12.246;2023-07-20T08:36:33;1.97;;;1.00;;
3801;SDS011;1916;51.798;12.246;2023-07-20T08:38:35;1.10;;;0.80;;
3801;SDS011;1916;51.798;12.246;2023-07-20T08:40:55;1.80;;;0.90;;
3801;SDS011;1916;51.798;12.246;2023-07-20T08:42:59;1.67;;;0.80;;
3801;SDS011;1916;51.798;12.246;2023-07-20T08:45:02;1.07;;;0.80;;
3801;SDS011;1916;51.798;12.246;2023-07-20T08:47:06;1.30;;;1.10;;
3801;SDS011;1916;51.798;12.246;2023-07-20T08:49:11;1.57;;;1.13;;
3801;SDS011;1916;51.798;12.246;2023-07-20T08:51:13;1.80;;;1.10;;
3801;SDS011;1916;51.798;12.246;2023-07-20T08:53:15;0.90;;;0.90;;
3801;SDS011;1916;51.798;12.246;2023-07-20T08:55:19;1.93;;;0.90;;
3801;SDS011;1916;51.798;12.246;2023-07-20T08:57:24;2.90;;;1.10;;
3801;SDS011;1916;51.798;12.246;2023-07-20T08:59:26;1.33;;;0.90;;
3801;SDS011;1916;51.798;12.246;2023-07-20T09:01:30;1.10;;;0.90;;
3801;SDS011;1916;51.798;12.246;2023-07-20T09:03:33;1.47;;;0.97;;
3801;SDS011;1916;51.798;12.246;2023-07-20T09:05:36;1.10;;;1.00;;
3801;SDS011;1916;51.798;12.246;2023-07-20T09:07:39;1.13;;;1.03;;
3801;SDS011;1916;51.798;12.246;2023-07-20T09:09:41;0.83;;;0.83;;
3801;SDS011;1916;51.798;12.246;2023-07-20T09:11:47;1.50;;;0.90;;
3801;SDS011;1916;51.798;12.246;2023-07-20T09:14:02;1.90;;;1.00;;
3801;SDS011;1916;51.798;12.246;2023-07-20T09:16:13;1.10;;;1.00;;
3801;SDS011;1916;51.798;12.246;2023-07-20T09:18:26;2.50;;;0.90;;
3801;SDS011;1916;51.798;12.246;2023-07-20T09:20:31;1.17;;;1.07;;
3801;SDS011;1916;51.798;12.246;2023-07-20T09:22:34;1.00;;;0.90;;
3801;SDS011;1916;51.798;12.246;2023-07-20T09:24:36;1.13;;;1.00;;
3801;SDS011;1916;51.798;12.246;2023-07-20T09:26:42;1.03;;;0.93;;
3801;SDS011;1916;51.798;12.246;2023-07-20T09:29:05;0.90;;;0.90;;
3801;SDS011;1916;51.798;12.246;2023-07-20T09:31:16;1.43;;;1.00;;
3801;SDS011;1916;51.798;12.246;2023-07-20T09:33:22;1.20;;;1.10;;
3801;SDS011;1916;51.798;12.246;2023-07-20T09:35:27;1.73;;;1.03;;
3801;SDS011;1916;51.798;12.246;2023-07-20T09:37:46;2.07;;;1.10;;
3801;SDS011;1916;51.798;12.246;2023-07-20T09:39:53;1.50;;;1.00;;
3801;SDS011;1916;51.798;12.246;2023-07-20T09:42:01;1.60;;;1.10;;
3801;SDS011;1916;51.798;12.246;2023-07-20T09:44:07;1.30;;;1.20;;
3801;SDS011;1916;51.798;12.246;2023-07-20T09:46:15;1.60;;;1.10;;
3801;SDS011;1916;51.798;12.246;2023-07-20T09:48:39;1.20;;;1.07;;
3801;SDS011;1916;51.798;12.246;2023-07-20T09:51:01;1.00;;;1.00;;
3801;SDS011;1916;51.798;12.246;2023-07-20T09:53:03;0.90;;;0.90;;
3801;SDS011;1916;51.798;12.246;2023-07-20T09:55:08;0.90;;;0.90;;
3801;SDS011;1916;51.798;12.246;2023-07-20T09:57:11;1.10;;;1.00;;
3801;SDS011;1916;51.798;12.246;2023-07-20T09:59:15;1.23;;;1.07;;
3801;SDS011;1916;51.798;12.246;2023-07-20T10:01:18;1.30;;;1.20;;
3801;SDS011;1916;51.798;12.246;2023-07-20T10:03:28;1.20;;;1.10;;
3801;SDS011;1916;51.798;12.246;2023-07-20T10:05:37;1.10;;;1.00;;
3801;SDS011;1916;51.798;12.246;2023-07-20T10:07:47;1.10;;;1.00;;
3801;SDS011;1916;51.798;12.246;2023-07-20T10:09:51;1.60;;;1.20;;
3801;SDS011;1916;51.798;12.246;2023-07-20T10:11:55;1.47;;;1.30;;
3801;SDS011;1916;51.798;12.246;2023-07-20T10:14:19;1.87;;;0.97;;
3801;SDS011;1916;51.798;12.246;2023-07-20T10:16:22;3.20;;;1.30;;
3801;SDS011;1916;51.798;12.246;2023-07-20T10:20:50;1.40;;;1.30;;
3801;SDS011;1916;51.798;12.246;2023-07-20T10:22:56;1.87;;;1.50;;
3801;SDS011;1916;51.798;12.246;2023-07-20T10:24:58;1.20;;;1.10;;
3801;SDS011;1916;51.798;12.246;2023-07-20T10:27:01;1.23;;;1.10;;
3801;SDS011;1916;51.798;12.246;2023-07-20T10:29:04;1.10;;;1.00;;
3801;SDS011;1916;51.798;12.246;2023-07-20T10:31:10;1.57;;;1.33;;
3801;SDS011;1916;51.798;12.246;2023-07-20T10:33:14;2.40;;;1.20;;
3801;SDS011;1916;51.798;12.246;2023-07-20T10:35:18;1.10;;;1.00;;
3801;SDS011;1916;51.798;12.246;2023-07-20T10:37:45;1.27;;;1.20;;
3801;SDS011;1916;51.798;12.246;2023-07-20T10:39:58;1.10;;;1.00;;
3801;SDS011;1916;51.798;12.246;2023-07-20T10:42:28;1.70;;;1.00;;
3801;SDS011;1916;51.798;12.246;2023-07-20T10:44:38;1.60;;;1.10;;
3801;SDS011;1916;51.798;12.246;2023-07-20T10:46:44;7.37;;;1.10;;
3801;SDS011;1916;51.798;12.246;2023-07-20T10:49:01;0.93;;;0.90;;
3801;SDS011;1916;51.798;12.246;2023-07-20T10:53:42;1.10;;;1.00;;
3801;SDS011;1916;51.798;12.246;2023-07-20T10:55:45;1.10;;;1.00;;
3801;SDS011;1916;51.798;12.246;2023-07-20T10:58:11;1.17;;;1.07;;
3801;SDS011;1916;51.798;12.246;2023-07-20T11:00:18;1.40;;;0.93;;
3801;SDS011;1916;51.798;12.246;2023-07-20T11:02:21;1.40;;;1.00;;
3801;SDS011;1916;51.798;12.246;2023-07-20T11:04:39;0.80;;;0.80;;
3801;SDS011;1916;51.798;12.246;2023-07-20T11:06:46;1.47;;;1.37;;
3801;SDS011;1916;51.798;12.246;2023-07-20T11:08:48;1.20;;;1.10;;
3801;SDS011;1916;51.798;12.246;2023-07-20T11:11:20;1.73;;;1.30;;
3801;SDS011;1916;51.798;12.246;2023-07-20T11:13:27;1.10;;;1.00;;
3801;SDS011;1916;51.798;12.246;2023-07-20T11:15:44;1.50;;;1.20;;
3801;SDS011;1916;51.798;12.246;2023-07-20T11:17:50;1.20;;;1.10;;
3801;SDS011;1916;51.798;12.246;2023-07-20T11:19:55;1.00;;;1.00;;
3801;SDS011;1916;51.798;12.246;2023-07-20T11:22:01;1.13;;;1.10;;
3801;SDS011;1916;51.798;12.246;2023-07-20T11:24:09;10.93;;;1.10;;
3801;SDS011;1916;51.798;12.246;2023-07-20T11:26:12;1.30;;;1.20;;
3801;SDS011;1916;51.798;12.246;2023-07-20T11:28:14;2.27;;;1.40;;
3801;SDS011;1916;51.798;12.246;2023-07-20T11:30:18;1.23;;;1.17;;
3801;SDS011;1916;51.798;12.246;2023-07-20T11:32:21;1.40;;;1.30;;
3801;SDS011;1916;51.798;12.246;2023-07-20T11:34:23;1.57;;;1.47;;
3801;SDS011;1916;51.798;12.246;2023-07-20T11:36:26;1.40;;;1.30;;
3801;SDS011;1916;51.798;12.246;2023-07-20T11:38:31;1.83;;;1.40;;
3801;SDS011;1916;51.798;12.246;2023-07-20T11:40:33;1.87;;;1.20;;
3801;SDS011;1916;51.798;12.246;2023-07-20T11:42:35;3.70;;;1.27;;
3801;SDS011;1916;51.798;12.246;2023-07-20T11:44:41;1.63;;;1.53;;
3801;SDS011;1916;51.798;12.246;2023-07-20T11:46:43;1.70;;;1.60;;
3801;SDS011;1916;51.798;12.246;2023-07-20T11:48:46;2.07;;;1.70;;
3801;SDS011;1916;51.798;12.246;2023-07-20T11:50:48;1.60;;;1.50;;
3801;SDS011;1916;51.798;12.246;2023-07-20T11:52:50;2.83;;;1.80;;
3801;SDS011;1916;51.798;12.246;2023-07-20T11:54:53;1.93;;;1.73;;
3801;SDS011;1916;51.798;12.246;2023-07-20T11:56:55;1.93;;;1.83;;
3801;SDS011;1916;51.798;12.246;2023-07-20T11:58:58;2.13;;;1.93;;
3801;SDS011;1916;51.798;12.246;2023-07-20T12:01:04;1.97;;;1.87;;
3801;SDS011;1916;51.798;12.246;2023-07-20T12:03:07;2.40;;;1.20;;
3801;SDS011;1916;51.798;12.246;2023-07-20T12:05:11;1.90;;;1.80;;
3801;SDS011;1916;51.798;12.246;2023-07-20T12:07:13;1.60;;;1.50;;
3801;SDS011;1916;51.798;12.246;2023-07-20T12:09:16;1.57;;;1.40;;
3801;SDS011;1916;51.798;12.246;2023-07-20T12:13:37;1.30;;;1.20;;
3801;SDS011;1916;51.798;12.246;2023-07-20T12:15:43;1.30;;;1.20;;
3801;SDS011;1916;51.798;12.246;2023-07-20T12:17:46;1.90;;;1.10;;
3801;SDS011;1916;51.798;12.246;2023-07-20T12:19:56;1.77;;;0.90;;
3801;SDS011;1916;51.798;12.246;2023-07-20T12:21:59;1.10;;;1.00;;
3801;SDS011;1916;51.798;12.246;2023-07-20T12:24:02;0.83;;;0.80;;
3801;SDS011;1916;51.798;12.246;2023-07-20T12:26:09;2.07;;;0.97;;
3801;SDS011;1916;51.798;12.246;2023-07-20T12:28:13;2.00;;;1.10;;
3801;SDS011;1916;51.798;12.246;2023-07-20T12:30:16;0.97;;;0.90;;
3801;SDS011;1916;51.798;12.246;2023-07-20T12:32:18;0.90;;;0.90;;
3801;SDS011;1916;51.798;12.246;2023-07-20T12:34:20;0.70;;;0.70;;
3801;SDS011;1916;51.798;12.246;2023-07-20T12:36:23;0.70;;;0.70;;
3801;SDS011;1916;51.798;12.246;2023-07-20T12:38:26;0.70;;;0.70;;
3801;SDS011;1916;51.798;12.246;2023-07-20T12:40:29;0.93;;;0.90;;
3801;SDS011;1916;51.798;12.246;2023-07-20T12:42:31;0.93;;;0.70;;
3801;SDS011;1916;51.798;12.246;2023-07-20T12:44:33;1.30;;;0.83;;
3801;SDS011;1916;51.798;12.246;2023-07-20T12:46:35;1.83;;;0.80;;
3801;SDS011;1916;51.798;12.246;2023-07-20T12:48:39;0.80;;;0.80;;
3801;SDS011;1916;51.798;12.246;2023-07-20T12:50:46;2.17;;;0.80;;
3801;SDS011;1916;51.798;12.246;2023-07-20T12:52:48;0.80;;;0.80;;
3801;SDS011;1916;51.798;12.246;2023-07-20T12:54:51;0.90;;;0.77;;